sensor_id;sensor_type;location;lat;lon;timestamp;pressure;altitude;pressure_sealevel;temperature;humidity
75157;BME280;63736;50.076;8.198;2024-01-16T00:00:22;98831.97;;;0.86;100.00
75157;BME280;63736;50.076;8.198;2024-01-16T00:02:48;98820.94;;;0.95;100.00
75157;BME280;63736;50.076;8.198;2024-01-16T00:05:13;98824.16;;;1.00;100.00
75157;BME280;63736;50.076;8.198;2024-01-16T00:07:38;98822.88;;;1.07;100.00
75157;BME280;63736;50.076;8.198;2024-01-16T00:10:06;98828.84;;;1.11;100.00
75157;BME280;63736;50.076;8.198;2024-01-16T00:12:32;98827.72;;;1.15;100.00
75157;BME280;63736;50.076;8.198;2024-01-16T00:14:57;98826.69;;;1.18;100.00
75157;BME280;63736;50.076;8.198;2024-01-16T00:17:22;98843.22;;;1.20;100.00
75157;BME280;63736;50.076;8.198;2024-01-16T00:19:47;98845.28;;;1.14;100.00
75157;BME280;63736;50.076;8.198;2024-01-16T00:22:12;98843.09;;;1.07;100.00
75157;BME280;63736;50.076;8.198;2024-01-16T00:24:37;98844.16;;;1.03;100.00
75157;BME280;63736;50.076;8.198;2024-01-16T00:27:03;98840.88;;;0.99;100.00
75157;BME280;63736;50.076;8.198;2024-01-16T00:29:28;98848.00;;;0.97;100.00
75157;BME280;63736;50.076;8.198;2024-01-16T00:31:55;98837.47;;;0.97;100.00
75157;BME280;63736;50.076;8.198;2024-01-16T00:34:20;98849.03;;;0.94;100.00
75157;BME280;63736;50.076;8.198;2024-01-16T00:36:45;98855.13;;;0.95;100.00
75157;BME280;63736;50.076;8.198;2024-01-16T00:39:11;98853.69;;;0.89;100.00
75157;BME280;63736;50.076;8.198;2024-01-16T00:41:36;98853.59;;;0.91;100.00
75157;BME280;63736;50.076;8.198;2024-01-16T00:44:02;98846.22;;;0.97;100.00
75157;BME280;63736;50.076;8.198;2024-01-16T00:46:28;98846.31;;;0.96;100.00
75157;BME280;63736;50.076;8.198;2024-01-16T00:48:53;98854.09;;;0.97;100.00
75157;BME280;63736;50.076;8.198;2024-01-16T00:51:18;98849.03;;;0.94;100.00
75157;BME280;63736;50.076;8.198;2024-01-16T00:53:43;98853.44;;;0.94;100.00
75157;BME280;63736;50.076;8.198;2024-01-16T00:56:09;98843.94;;;0.91;100.00
75157;BME280;63736;50.076;8.198;2024-01-16T00:58:34;98850.97;;;0.91;100.00
75157;BME280;63736;50.076;8.198;2024-01-16T01:00:59;98844.88;;;0.90;100.00
75157;BME280;63736;50.076;8.198;2024-01-16T01:03:24;98849.03;;;0.94;100.00
75157;BME280;63736;50.076;8.198;2024-01-16T01:05:50;98849.72;;;0.98;100.00
75157;BME280;63736;50.076;8.198;2024-01-16T01:08:15;98852.84;;;1.05;100.00
75157;BME280;63736;50.076;8.198;2024-01-16T01:10:40;98844.84;;;1.06;100.00
75157;BME280;63736;50.076;8.198;2024-01-16T01:13:05;98857.69;;;1.12;100.00
75157;BME280;63736;50.076;8.198;2024-01-16T01:15:30;98852.59;;;1.09;100.00
75157;BME280;63736;50.076;8.198;2024-01-16T01:17:55;98854.53;;;1.06;100.00
75157;BME280;63736;50.076;8.198;2024-01-16T01:20:21;98867.09;;;1.01;100.00
75157;BME280;63736;50.076;8.198;2024-01-16T01:22:46;98859.53;;;0.94;100.00
75157;BME280;63736;50.076;8.198;2024-01-16T01:25:12;98867.84;;;0.87;100.00
75157;BME280;63736;50.076;8.198;2024-01-16T01:27:37;98869.88;;;0.81;100.00
75157;BME280;63736;50.076;8.198;2024-01-16T01:30:03;98864.03;;;0.76;100.00
75157;BME280;63736;50.076;8.198;2024-01-16T01:32:28;98881.59;;;0.76;100.00
75157;BME280;63736;50.076;8.198;2024-01-16T01:34:54;98877.94;;;0.78;100.00
75157;BME280;63736;50.076;8.198;2024-01-16T01:37:19;98888.78;;;0.88;100.00
75157;BME280;63736;50.076;8.198;2024-01-16T01:39:44;98884.03;;;0.95;100.00
75157;BME280;63736;50.076;8.198;2024-01-16T01:42:09;98877.53;;;1.02;100.00
75157;BME280;63736;50.076;8.198;2024-01-16T01:44:34;98885.91;;;1.09;100.00
75157;BME280;63736;50.076;8.198;2024-01-16T01:47:00;98883.06;;;1.13;100.00
75157;BME280;63736;50.076;8.198;2024-01-16T01:49:25;98886.44;;;1.15;100.00
75157;BME280;63736;50.076;8.198;2024-01-16T01:51:51;98879.31;;;1.18;100.00
75157;BME280;63736;50.076;8.198;2024-01-16T01:54:17;98885.25;;;1.21;100.00
75157;BME280;63736;50.076;8.198;2024-01-16T01:56:43;98881.34;;;1.28;100.00
75157;BME280;63736;50.076;8.198;2024-01-16T01:59:09;98895.06;;;1.34;100.00
75157;BME280;63736;50.076;8.198;2024-01-16T02:01:34;98887.09;;;1.35;100.00
75157;BME280;63736;50.076;8.198;2024-01-16T02:03:59;98890.84;;;1.31;100.00
75157;BME280;63736;50.076;8.198;2024-01-16T02:06:26;98888.19;;;1.31;100.00
75157;BME280;63736;50.076;8.198;2024-01-16T02:08:51;98885.56;;;1.31;100.00
75157;BME280;63736;50.076;8.198;2024-01-16T02:11:16;98891.69;;;1.31;100.00
75157;BME280;63736;50.076;8.198;2024-01-16T02:13:41;98895.34;;;1.29;100.00
75157;BME280;63736;50.076;8.198;2024-01-16T02:16:17;98893.56;;;1.29;100.00
75157;BME280;63736;50.076;8.198;2024-01-16T02:18:42;98902.97;;;1.34;100.00
75157;BME280;63736;50.076;8.198;2024-01-16T02:21:07;98897.56;;;1.37;100.00
75157;BME280;63736;50.076;8.198;2024-01-16T02:23:32;98899.06;;;1.41;100.00
75157;BME280;63736;50.076;8.198;2024-01-16T02:25:58;98905.84;;;1.45;100.00
75157;BME280;63736;50.076;8.198;2024-01-16T02:28:24;98896.84;;;1.49;100.00
75157;BME280;63736;50.076;8.198;2024-01-16T02:30:49;98898.47;;;1.52;100.00
75157;BME280;63736;50.076;8.198;2024-01-16T02:33:14;98889.78;;;1.49;100.00
75157;BME280;63736;50.076;8.198;2024-01-16T02:35:39;98888.94;;;1.49;100.00
75157;BME280;63736;50.076;8.198;2024-01-16T02:38:04;98894.03;;;1.52;100.00
75157;BME280;63736;50.076;8.198;2024-01-16T02:40:30;98891.06;;;1.58;100.00
75157;BME280;63736;50.076;8.198;2024-01-16T02:42:55;98885.03;;;1.56;100.00
75157;BME280;63736;50.076;8.198;2024-01-16T02:45:20;98894.03;;;1.52;100.00
75157;BME280;63736;50.076;8.198;2024-01-16T02:47:45;98884.19;;;1.56;100.00
75157;BME280;63736;50.076;8.198;2024-01-16T02:50:11;98880.72;;;1.55;100.00
75157;BME280;63736;50.076;8.198;2024-01-16T02:52:36;98888.75;;;1.52;100.00
75157;BME280;63736;50.076;8.198;2024-01-16T02:55:01;98887.16;;;1.49;100.00
75157;BME280;63736;50.076;8.198;2024-01-16T02:57:26;98890.75;;;1.48;100.00
75157;BME280;63736;50.076;8.198;2024-01-16T02:59:52;98890.81;;;1.47;100.00
75157;BME280;63736;50.076;8.198;2024-01-16T03:02:17;98892.59;;;1.46;100.00
75157;BME280;63736;50.076;8.198;2024-01-16T03:04:42;98893.72;;;1.42;100.00
75157;BME280;63736;50.076;8.198;2024-01-16T03:07:07;98897.47;;;1.38;100.00
75157;BME280;63736;50.076;8.198;2024-01-16T03:09:33;98895.50;;;1.26;100.00
75157;BME280;63736;50.076;8.198;2024-01-16T03:11:59;98910.97;;;1.16;100.00
75157;BME280;63736;50.076;8.198;2024-01-16T03:14:24;98918.84;;;1.16;100.00
75157;BME280;63736;50.076;8.198;2024-01-16T03:16:49;98919.97;;;1.12;100.00
75157;BME280;63736;50.076;8.198;2024-01-16T03:19:14;98921.91;;;1.08;100.00
75157;BME280;63736;50.076;8.198;2024-01-16T03:21:39;98930.44;;;0.96;100.00
75157;BME280;63736;50.076;8.198;2024-01-16T03:24:06;98929.19;;;0.87;100.00
75157;BME280;63736;50.076;8.198;2024-01-16T03:26:31;98933.91;;;0.80;100.00
75157;BME280;63736;50.076;8.198;2024-01-16T03:28:57;98936.00;;;0.74;100.00
75157;BME280;63736;50.076;8.198;2024-01-16T03:31:22;98935.31;;;0.70;100.00
75157;BME280;63736;50.076;8.198;2024-01-16T03:33:48;98929.31;;;0.68;100.00
75157;BME280;63736;50.076;8.198;2024-01-16T03:36:13;98933.97;;;0.63;100.00
75157;BME280;63736;50.076;8.198;2024-01-16T03:38:41;98929.63;;;0.62;100.00
75157;BME280;63736;50.076;8.198;2024-01-16T03:41:06;98922.75;;;0.59;100.00
75157;BME280;63736;50.076;8.198;2024-01-16T03:43:33;98925.63;;;0.55;100.00
75157;BME280;63736;50.076;8.198;2024-01-16T03:45:59;98931.97;;;0.51;100.00
75157;BME280;63736;50.076;8.198;2024-01-16T03:48:24;98923.00;;;0.55;100.00
75157;BME280;63736;50.076;8.198;2024-01-16T03:50:49;98920.03;;;0.61;100.00
75157;BME280;63736;50.076;8.198;2024-01-16T03:53:14;98921.13;;;0.57;100.00
75157;BME280;63736;50.076;8.198;2024-01-16T03:55:39;98920.22;;;0.58;100.00
75157;BME280;63736;50.076;8.198;2024-01-16T03:58:05;98917.41;;;0.61;100.00
75157;BME280;63736;50.076;8.198;2024-01-16T04:00:30;98923.44;;;0.63;100.00
75157;BME280;63736;50.076;8.198;2024-01-16T04:02:55;98925.91;;;0.66;100.00
75157;BME280;63736;50.076;8.198;2024-01-16T04:05:20;98923.19;;;0.68;100.00
75157;BME280;63736;50.076;8.198;2024-01-16T04:07:45;98934.72;;;0.65;100.00
75157;BME280;63736;50.076;8.198;2024-01-16T04:10:10;98928.69;;;0.63;100.00
75157;BME280;63736;50.076;8.198;2024-01-16T04:12:36;98929.63;;;0.62;100.00
75157;BME280;63736;50.076;8.198;2024-01-16T04:15:01;98932.16;;;0.63;100.00
75157;BME280;63736;50.076;8.198;2024-01-16T04:17:26;98927.00;;;0.62;100.00
75157;BME280;63736;50.076;8.198;2024-01-16T04:19:51;98933.97;;;0.63;100.00
75157;BME280;63736;50.076;8.198;2024-01-16T04:22:16;98930.56;;;0.61;100.00
75157;BME280;63736;50.076;8.198;2024-01-16T04:24:42;98927.16;;;0.59;100.00
75157;BME280;63736;50.076;8.198;2024-01-16T04:27:07;98928.94;;;0.58;100.00
75157;BME280;63736;50.076;8.198;2024-01-16T04:29:32;98929.00;;;0.57;100.00
75157;BME280;63736;50.076;8.198;2024-01-16T04:31:57;98934.09;;;0.60;100.00
75157;BME280;63736;50.076;8.198;2024-01-16T04:34:23;98932.94;;;0.65;100.00
75157;BME280;63736;50.076;8.198;2024-01-16T04:36:48;98935.25;;;0.72;100.00
75157;BME280;63736;50.076;8.198;2024-01-16T04:39:13;98929.66;;;0.78;100.00
75157;BME280;63736;50.076;8.198;2024-01-16T04:41:39;98934.34;;;0.89;100.00
75157;BME280;63736;50.076;8.198;2024-01-16T04:44:04;98933.25;;;0.93;100.00
75157;BME280;63736;50.076;8.198;2024-01-16T04:46:29;98925.78;;;1.01;100.00
75157;BME280;63736;50.076;8.198;2024-01-16T04:48:54;98929.09;;;1.05;100.00
75157;BME280;63736;50.076;8.198;2024-01-16T04:51:20;98925.47;;;1.07;100.00
75157;BME280;63736;50.076;8.198;2024-01-16T04:53:45;98923.66;;;1.08;100.00
75157;BME280;63736;50.076;8.198;2024-01-16T04:56:10;98928.00;;;1.09;100.00
75157;BME280;63736;50.076;8.198;2024-01-16T04:58:35;98923.44;;;1.12;100.00
75157;BME280;63736;50.076;8.198;2024-01-16T05:01:01;98933.78;;;1.15;100.00
75157;BME280;63736;50.076;8.198;2024-01-16T05:03:26;98929.28;;;1.18;100.00
75157;BME280;63736;50.076;8.198;2024-01-16T05:05:51;98935.56;;;1.15;100.00
75157;BME280;63736;50.076;8.198;2024-01-16T05:08:16;98927.50;;;1.18;100.00
75157;BME280;63736;50.076;8.198;2024-01-16T05:10:41;98920.47;;;1.19;100.00
75157;BME280;63736;50.076;8.198;2024-01-16T05:13:07;98923.84;;;1.21;100.00
75157;BME280;63736;50.076;8.198;2024-01-16T05:15:32;98920.97;;;1.25;100.00
75157;BME280;63736;50.076;8.198;2024-01-16T05:17:57;98913.78;;;1.29;100.00
75157;BME280;63736;50.076;8.198;2024-01-16T05:20:22;98922.50;;;1.29;100.00
75157;BME280;63736;50.076;8.198;2024-01-16T05:22:48;98922.25;;;1.34;100.00
75157;BME280;63736;50.076;8.198;2024-01-16T05:25:13;98920.56;;;1.33;100.00
75157;BME280;63736;50.076;8.198;2024-01-16T05:27:38;98914.19;;;1.37;100.00
75157;BME280;63736;50.076;8.198;2024-01-16T05:30:04;98915.09;;;1.36;100.00
75157;BME280;63736;50.076;8.198;2024-01-16T05:32:29;98908.09;;;1.37;100.00
75157;BME280;63736;50.076;8.198;2024-01-16T05:34:54;98907.91;;;1.40;100.00
75157;BME280;63736;50.076;8.198;2024-01-16T05:37:19;98896.44;;;1.41;100.00
75157;BME280;63736;50.076;8.198;2024-01-16T05:39:45;98901.63;;;1.42;100.00
75157;BME280;63736;50.076;8.198;2024-01-16T05:42:11;98895.50;;;1.42;100.00
75157;BME280;63736;50.076;8.198;2024-01-16T05:44:36;98898.31;;;1.39;100.00
75157;BME280;63736;50.076;8.198;2024-01-16T05:47:01;98895.84;;;1.36;100.00
75157;BME280;63736;50.076;8.198;2024-01-16T05:49:27;98889.06;;;1.31;100.00
75157;BME280;63736;50.076;8.198;2024-01-16T05:51:52;98885.06;;;1.24;100.00
75157;BME280;63736;50.076;8.198;2024-01-16T05:54:18;98881.94;;;1.18;100.00
75157;BME280;63736;50.076;8.198;2024-01-16T05:56:43;98878.91;;;1.09;100.00
75157;BME280;63736;50.076;8.198;2024-01-16T05:59:08;98874.72;;;1.05;100.00
75157;BME280;63736;50.076;8.198;2024-01-16T06:01:33;98872.34;;;1.01;100.00
75157;BME280;63736;50.076;8.198;2024-01-16T06:03:59;98865.50;;;0.98;100.00
75157;BME280;63736;50.076;8.198;2024-01-16T06:06:24;98868.13;;;0.98;100.00
75157;BME280;63736;50.076;8.198;2024-01-16T06:08:50;98867.44;;;0.94;100.00
75157;BME280;63736;50.076;8.198;2024-01-16T06:11:15;98875.66;;;0.88;100.00
75157;BME280;63736;50.076;8.198;2024-01-16T06:13:40;98869.88;;;0.81;100.00
75157;BME280;63736;50.076;8.198;2024-01-16T06:16:06;98882.59;;;0.73;100.00
75157;BME280;63736;50.076;8.198;2024-01-16T06:18:31;98884.78;;;0.65;100.00
75157;BME280;63736;50.076;8.198;2024-01-16T06:20:56;98883.75;;;0.52;100.00
75157;BME280;63736;50.076;8.198;2024-01-16T06:23:22;98887.03;;;0.39;100.00
75157;BME280;63736;50.076;8.198;2024-01-16T06:25:47;98885.19;;;0.24;100.00
75157;BME280;63736;50.076;8.198;2024-01-16T06:28:13;98879.81;;;0.09;100.00
75157;BME280;63736;50.076;8.198;2024-01-16T06:30:38;98882.22;;;-0.04;100.00
75157;BME280;63736;50.076;8.198;2024-01-16T06:33:03;98876.66;;;-0.15;100.00
75157;BME280;63736;50.076;8.198;2024-01-16T06:35:29;98880.56;;;-0.24;100.00
75157;BME280;63736;50.076;8.198;2024-01-16T06:37:54;98882.75;;;-0.32;100.00
75157;BME280;63736;50.076;8.198;2024-01-16T06:40:19;98880.50;;;-0.40;100.00
75157;BME280;63736;50.076;8.198;2024-01-16T06:42:45;98879.78;;;-0.43;100.00
75157;BME280;63736;50.076;8.198;2024-01-16T06:45:11;98885.19;;;-0.46;100.00
75157;BME280;63736;50.076;8.198;2024-01-16T06:47:38;98878.41;;;-0.51;100.00
75157;BME280;63736;50.076;8.198;2024-01-16T06:50:03;98877.47;;;-0.50;100.00
75157;BME280;63736;50.076;8.198;2024-01-16T06:52:28;98883.72;;;-0.52;100.00
75157;BME280;63736;50.076;8.198;2024-01-16T06:54:54;98892.44;;;-0.52;100.00
75157;BME280;63736;50.076;8.198;2024-01-16T06:57:19;98888.28;;;-0.56;100.00
75157;BME280;63736;50.076;8.198;2024-01-16T06:59:44;98899.06;;;-0.62;100.00
75157;BME280;63736;50.076;8.198;2024-01-16T07:02:09;98894.88;;;-0.66;100.00
75157;BME280;63736;50.076;8.198;2024-01-16T07:04:35;98890.72;;;-0.70;100.00
75157;BME280;63736;50.076;8.198;2024-01-16T07:07:00;98887.47;;;-0.75;100.00
75157;BME280;63736;50.076;8.198;2024-01-16T07:09:25;98906.81;;;-0.78;100.00
75157;BME280;63736;50.076;8.198;2024-01-16T07:11:52;98889.16;;;-0.74;100.00
75157;BME280;63736;50.076;8.198;2024-01-16T07:14:17;98892.34;;;-0.68;100.00
75157;BME280;63736;50.076;8.198;2024-01-16T07:16:42;98898.44;;;-0.67;100.00
75157;BME280;63736;50.076;8.198;2024-01-16T07:19:08;98901.13;;;-0.69;100.00
75157;BME280;63736;50.076;8.198;2024-01-16T07:21:33;98896.00;;;-0.72;100.00
75157;BME280;63736;50.076;8.198;2024-01-16T07:23:58;98896.97;;;-0.73;100.00
75157;BME280;63736;50.076;8.198;2024-01-16T07:26:24;98893.19;;;-0.67;100.00
75157;BME280;63736;50.076;8.198;2024-01-16T07:28:49;98893.91;;;-0.63;100.00
75157;BME280;63736;50.076;8.198;2024-01-16T07:31:14;98893.72;;;-0.60;100.00
75157;BME280;63736;50.076;8.198;2024-01-16T07:33:41;98893.72;;;-0.60;100.00
75157;BME280;63736;50.076;8.198;2024-01-16T07:36:07;98899.78;;;-0.58;100.00
75157;BME280;63736;50.076;8.198;2024-01-16T07:38:33;98915.44;;;-0.57;100.00
75157;BME280;63736;50.076;8.198;2024-01-16T07:40:58;98910.19;;;-0.57;100.00
75157;BME280;63736;50.076;8.198;2024-01-16T07:43:23;98911.94;;;-0.57;100.00
75157;BME280;63736;50.076;8.198;2024-01-16T07:45:49;98912.66;;;-0.54;100.00
75157;BME280;63736;50.076;8.198;2024-01-16T07:48:14;98909.03;;;-0.51;100.00
75157;BME280;63736;50.076;8.198;2024-01-16T07:50:39;98916.81;;;-0.50;100.00
75157;BME280;63736;50.076;8.198;2024-01-16T07:53:05;98915.06;;;-0.49;100.00
75157;BME280;63736;50.076;8.198;2024-01-16T07:55:31;98922.00;;;-0.48;100.00
75157;BME280;63736;50.076;8.198;2024-01-16T07:57:56;98925.47;;;-0.47;100.00
75157;BME280;63736;50.076;8.198;2024-01-16T08:00:21;98920.06;;;-0.44;100.00
75157;BME280;63736;50.076;8.198;2024-01-16T08:02:47;98925.19;;;-0.41;100.00
75157;BME280;63736;50.076;8.198;2024-01-16T08:05:12;98928.50;;;-0.38;100.00
75157;BME280;63736;50.076;8.198;2024-01-16T08:07:38;98925.56;;;-0.31;100.00
75157;BME280;63736;50.076;8.198;2024-01-16T08:10:03;98925.28;;;-0.25;100.00
75157;BME280;63736;50.076;8.198;2024-01-16T08:12:28;98932.69;;;-0.16;100.00
75157;BME280;63736;50.076;8.198;2024-01-16T08:14:53;98933.81;;;-0.03;100.00
75157;BME280;63736;50.076;8.198;2024-01-16T08:17:19;98932.47;;;0.06;100.00
75157;BME280;63736;50.076;8.198;2024-01-16T08:19:44;98931.25;;;0.13;100.00
75157;BME280;63736;50.076;8.198;2024-01-16T08:22:09;98935.41;;;0.18;100.00
75157;BME280;63736;50.076;8.198;2024-01-16T08:24:34;98937.13;;;0.19;100.00
75157;BME280;63736;50.076;8.198;2024-01-16T08:26:59;98931.69;;;0.22;100.00
75157;BME280;63736;50.076;8.198;2024-01-16T08:29:25;98932.47;;;0.24;100.00
75157;BME280;63736;50.076;8.198;2024-01-16T08:31:50;98936.47;;;0.31;100.00
75157;BME280;63736;50.076;8.198;2024-01-16T08:34:17;98935.16;;;0.40;100.00
75157;BME280;63736;50.076;8.198;2024-01-16T08:36:42;98942.47;;;0.51;100.00
75157;BME280;63736;50.076;8.198;2024-01-16T08:39:07;98942.78;;;0.62;100.00
75157;BME280;63736;50.076;8.198;2024-01-16T08:41:32;98949.25;;;0.72;100.00
75157;BME280;63736;50.076;8.198;2024-01-16T08:43:58;98945.88;;;0.86;100.00
75157;BME280;63736;50.076;8.198;2024-01-16T08:46:23;98945.41;;;0.95;100.00
75157;BME280;63736;50.076;8.198;2024-01-16T08:48:49;98951.06;;;1.04;100.00
75157;BME280;63736;50.076;8.198;2024-01-16T08:51:14;98949.81;;;1.11;100.00
75157;BME280;63736;50.076;8.198;2024-01-16T08:53:39;98939.13;;;1.14;100.00
75157;BME280;63736;50.076;8.198;2024-01-16T08:56:05;98940.66;;;1.18;100.00
75157;BME280;63736;50.076;8.198;2024-01-16T08:58:32;98932.75;;;1.18;100.00
75157;BME280;63736;50.076;8.198;2024-01-16T09:01:00;98939.63;;;1.21;100.00
75157;BME280;63736;50.076;8.198;2024-01-16T09:03:25;98937.94;;;1.20;100.00
75157;BME280;63736;50.076;8.198;2024-01-16T09:05:51;98943.28;;;1.18;100.00
75157;BME280;63736;50.076;8.198;2024-01-16T09:08:16;98943.56;;;1.13;100.00
75157;BME280;63736;50.076;8.198;2024-01-16T09:10:41;98935.16;;;1.07;100.00
75157;BME280;63736;50.076;8.198;2024-01-16T09:13:06;98940.66;;;1.02;100.00
75157;BME280;63736;50.076;8.198;2024-01-16T09:15:32;98946.81;;;1.01;100.00
75157;BME280;63736;50.076;8.198;2024-01-16T09:17:57;98940.88;;;0.97;100.00
75157;BME280;63736;50.076;8.198;2024-01-16T09:20:23;98943.59;;;0.96;100.00
75157;BME280;63736;50.076;8.198;2024-01-16T09:22:49;98947.00;;;0.98;100.00
75157;BME280;63736;50.076;8.198;2024-01-16T09:25:14;98943.88;;;1.07;100.00
75157;BME280;63736;50.076;8.198;2024-01-16T09:27:40;98948.31;;;1.23;100.00
75157;BME280;63736;50.076;8.198;2024-01-16T09:30:06;98948.72;;;1.47;100.00
75157;BME280;63736;50.076;8.198;2024-01-16T09:32:32;98956.00;;;1.74;100.00
75157;BME280;63736;50.076;8.198;2024-01-16T09:34:57;98950.53;;;1.93;100.00
75157;BME280;63736;50.076;8.198;2024-01-16T09:37:23;98958.69;;;2.04;100.00
75157;BME280;63736;50.076;8.198;2024-01-16T09:39:48;98970.63;;;2.10;100.00
75157;BME280;63736;50.076;8.198;2024-01-16T09:42:15;98967.47;;;2.19;100.00
75157;BME280;63736;50.076;8.198;2024-01-16T09:44:41;98966.19;;;2.41;100.00
75157;BME280;63736;50.076;8.198;2024-01-16T09:47:07;98972.56;;;2.81;100.00
75157;BME280;63736;50.076;8.198;2024-01-16T09:49:34;98968.84;;;3.27;100.00
75157;BME280;63736;50.076;8.198;2024-01-16T09:51:59;98971.59;;;3.68;100.00
75157;BME280;63736;50.076;8.198;2024-01-16T09:54:26;98967.97;;;3.83;100.00
75157;BME280;63736;50.076;8.198;2024-01-16T09:56:52;98966.09;;;3.85;100.00
75157;BME280;63736;50.076;8.198;2024-01-16T09:59:18;98962.88;;;3.80;100.00
75157;BME280;63736;50.076;8.198;2024-01-16T10:01:45;98962.72;;;3.69;100.00
75157;BME280;63736;50.076;8.198;2024-01-16T10:04:11;98972.28;;;3.57;100.00
75157;BME280;63736;50.076;8.198;2024-01-16T10:06:37;98973.81;;;3.46;100.00
75157;BME280;63736;50.076;8.198;2024-01-16T10:09:03;98971.66;;;3.39;100.00
75157;BME280;63736;50.076;8.198;2024-01-16T10:11:28;98970.06;;;3.36;100.00
75157;BME280;63736;50.076;8.198;2024-01-16T10:13:54;98969.50;;;3.31;100.00
75157;BME280;63736;50.076;8.198;2024-01-16T10:16:19;98970.44;;;3.30;100.00
75157;BME280;63736;50.076;8.198;2024-01-16T10:18:46;98974.50;;;3.36;100.00
75157;BME280;63736;50.076;8.198;2024-01-16T10:21:21;98969.69;;;3.42;100.00
75157;BME280;63736;50.076;8.198;2024-01-16T10:23:54;98955.91;;;3.52;100.00
75157;BME280;63736;50.076;8.198;2024-01-16T10:26:19;98950.03;;;3.61;100.00
75157;BME280;63736;50.076;8.198;2024-01-16T10:28:46;98952.16;;;3.69;100.00
75157;BME280;63736;50.076;8.198;2024-01-16T10:31:11;98942.25;;;3.72;100.00
75157;BME280;63736;50.076;8.198;2024-01-16T10:33:39;98944.56;;;3.77;100.00
75157;BME280;63736;50.076;8.198;2024-01-16T10:36:14;98948.63;;;3.83;100.00
75157;BME280;63736;50.076;8.198;2024-01-16T10:38:41;98943.25;;;3.84;100.00
75157;BME280;63736;50.076;8.198;2024-01-16T10:41:11;98945.38;;;3.92;100.00
75157;BME280;63736;50.076;8.198;2024-01-16T10:43:37;98945.00;;;3.98;100.00
75157;BME280;63736;50.076;8.198;2024-01-16T10:46:17;98945.00;;;3.98;100.00
75157;BME280;63736;50.076;8.198;2024-01-16T10:48:43;98937.06;;;3.98;100.00
75157;BME280;63736;50.076;8.198;2024-01-16T10:51:13;98940.66;;;3.97;100.00
75157;BME280;63736;50.076;8.198;2024-01-16T10:53:41;98937.03;;;3.85;100.00
75157;BME280;63736;50.076;8.198;2024-01-16T10:56:07;98925.03;;;3.79;100.00
75157;BME280;63736;50.076;8.198;2024-01-16T10:58:35;98929.78;;;3.74;100.00
75157;BME280;63736;50.076;8.198;2024-01-16T11:01:01;98928.94;;;3.74;100.00
75157;BME280;63736;50.076;8.198;2024-01-16T11:05:54;98918.81;;;3.80;100.00
75157;BME280;63736;50.076;8.198;2024-01-16T11:08:21;98916.19;;;3.80;100.00
75157;BME280;63736;50.076;8.198;2024-01-16T11:10:52;98913.63;;;3.79;100.00
75157;BME280;63736;50.076;8.198;2024-01-16T11:13:17;98911.09;;;3.77;100.00
75157;BME280;63736;50.076;8.198;2024-01-16T11:15:43;98903.84;;;3.81;100.00
75157;BME280;63736;50.076;8.198;2024-01-16T11:18:11;98905.94;;;3.89;100.00
75157;BME280;63736;50.076;8.198;2024-01-16T11:20:39;98904.06;;;3.91;100.00
75157;BME280;63736;50.076;8.198;2024-01-16T11:23:07;98891.59;;;3.93;100.00
75157;BME280;63736;50.076;8.198;2024-01-16T11:25:33;98881.03;;;3.93;100.00
75157;BME280;63736;50.076;8.198;2024-01-16T11:28:08;98880.91;;;3.94;100.00
75157;BME280;63736;50.076;8.198;2024-01-16T11:30:35;98877.13;;;3.99;100.00
75157;BME280;63736;50.076;8.198;2024-01-16T11:33:00;98875.84;;;4.04;100.00
75157;BME280;63736;50.076;8.198;2024-01-16T11:35:35;98872.69;;;4.12;100.00
75157;BME280;63736;50.076;8.198;2024-01-16T11:38:14;98866.34;;;4.27;100.00
75157;BME280;63736;50.076;8.198;2024-01-16T11:40:41;98859.91;;;4.44;100.00
75157;BME280;63736;50.076;8.198;2024-01-16T11:43:34;98847.72;;;4.55;100.00
75157;BME280;63736;50.076;8.198;2024-01-16T11:45:51;98848.78;;;4.65;100.00
75157;BME280;63736;50.076;8.198;2024-01-16T11:48:16;98844.41;;;4.77;100.00
75157;BME280;63736;50.076;8.198;2024-01-16T11:50:42;98843.88;;;4.85;100.00
75157;BME280;63736;50.076;8.198;2024-01-16T11:53:08;98843.97;;;4.96;100.00
75157;BME280;63736;50.076;8.198;2024-01-16T11:55:34;98838.50;;;5.10;100.00
75157;BME280;63736;50.076;8.198;2024-01-16T11:58:26;98830.41;;;5.25;100.00
75157;BME280;63736;50.076;8.198;2024-01-16T12:00:58;98826.13;;;5.35;100.00
75157;BME280;63736;50.076;8.198;2024-01-16T12:03:24;98824.59;;;5.44;100.00
75157;BME280;63736;50.076;8.198;2024-01-16T12:05:59;98824.03;;;5.52;100.00
75157;BME280;63736;50.076;8.198;2024-01-16T12:08:24;98823.56;;;5.58;100.00
75157;BME280;63736;50.076;8.198;2024-01-16T12:10:50;98822.03;;;5.55;98.16
75157;BME280;63736;50.076;8.198;2024-01-16T12:13:15;98822.09;;;5.42;96.52
75157;BME280;63736;50.076;8.198;2024-01-16T12:15:41;98819.31;;;5.20;91.02
75157;BME280;63736;50.076;8.198;2024-01-16T12:18:06;98822.78;;;4.96;94.58
75157;BME280;63736;50.076;8.198;2024-01-16T12:20:32;98827.72;;;4.76;97.79
75157;BME280;63736;50.076;8.198;2024-01-16T12:22:59;98824.44;;;4.60;100.00
75157;BME280;63736;50.076;8.198;2024-01-16T12:25:25;98821.19;;;4.43;100.00
75157;BME280;63736;50.076;8.198;2024-01-16T12:28:03;98818.56;;;4.30;100.00
75157;BME280;63736;50.076;8.198;2024-01-16T12:30:32;98818.78;;;4.14;100.00
75157;BME280;63736;50.076;8.198;2024-01-16T12:35:30;98808.94;;;3.91;100.00
75157;BME280;63736;50.076;8.198;2024-01-16T12:38:02;98802.59;;;3.80;100.00
75157;BME280;63736;50.076;8.198;2024-01-16T12:40:27;98801.94;;;3.77;100.00
75157;BME280;63736;50.076;8.198;2024-01-16T12:42:53;98795.19;;;3.86;100.00
75157;BME280;63736;50.076;8.198;2024-01-16T12:45:18;98800.38;;;4.00;100.00
75157;BME280;63736;50.076;8.198;2024-01-16T12:47:44;98799.63;;;4.24;100.00
75157;BME280;63736;50.076;8.198;2024-01-16T12:50:18;98791.38;;;4.41;100.00
75157;BME280;63736;50.076;8.198;2024-01-16T12:52:44;98779.47;;;4.60;100.00
75157;BME280;63736;50.076;8.198;2024-01-16T12:55:10;98778.50;;;4.74;100.00
75157;BME280;63736;50.076;8.198;2024-01-16T12:57:35;98772.31;;;4.86;100.00